sensor_id;sensor_type;location;lat;lon;timestamp;P1;durP1;ratioP1;P2;durP2;ratioP2
37805;SDS011;25082;50.870;0.022;2023-04-16T00:02:16;3.13;;;2.17;;
37805;SDS011;25082;50.870;0.022;2023-04-16T00:04:42;3.20;;;2.00;;
37805;SDS011;25082;50.870;0.022;2023-04-16T00:07:08;5.22;;;2.38;;
37805;SDS011;25082;50.870;0.022;2023-04-16T00:09:33;3.55;;;2.55;;
37805;SDS011;25082;50.870;0.022;2023-04-16T00:11:59;5.13;;;2.72;;
37805;SDS011;25082;50.870;0.022;2023-04-16T00:14:25;4.38;;;2.50;;
37805;SDS011;25082;50.870;0.022;2023-04-16T00:16:51;6.88;;;2.92;;
37805;SDS011;25082;50.870;0.022;2023-04-16T00:19:17;6.20;;;2.75;;
37805;SDS011;25082;50.870;0.022;2023-04-16T00:21:43;4.15;;;2.55;;
37805;SDS011;25082;50.870;0.022;2023-04-16T00:24:08;4.57;;;2.50;;
37805;SDS011;25082;50.870;0.022;2023-04-16T00:26:34;5.97;;;2.83;;
37805;SDS011;25082;50.870;0.022;2023-04-16T00:29:00;5.70;;;2.50;;
37805;SDS011;25082;50.870;0.022;2023-04-16T00:31:26;4.45;;;2.38;;
37805;SDS011;25082;50.870;0.022;2023-04-16T00:33:53;5.68;;;2.67;;
37805;SDS011;25082;50.870;0.022;2023-04-16T00:36:19;4.05;;;2.58;;
37805;SDS011;25082;50.870;0.022;2023-04-16T00:38:44;4.22;;;2.63;;
37805;SDS011;25082;50.870;0.022;2023-04-16T00:41:10;3.78;;;2.25;;
37805;SDS011;25082;50.870;0.022;2023-04-16T00:43:36;5.60;;;2.70;;
37805;SDS011;25082;50.870;0.022;2023-04-16T00:46:02;3.40;;;2.53;;
37805;SDS011;25082;50.870;0.022;2023-04-16T00:48:31;4.65;;;2.70;;
37805;SDS011;25082;50.870;0.022;2023-04-16T00:50:57;4.07;;;2.42;;
37805;SDS011;25082;50.870;0.022;2023-04-16T00:53:25;6.05;;;2.45;;
37805;SDS011;25082;50.870;0.022;2023-04-16T00:55:51;2.67;;;2.30;;
37805;SDS011;25082;50.870;0.022;2023-04-16T00:58:20;3.22;;;2.20;;
37805;SDS011;25082;50.870;0.022;2023-04-16T01:00:46;4.15;;;2.70;;
37805;SDS011;25082;50.870;0.022;2023-04-16T01:03:11;4.50;;;2.65;;
37805;SDS011;25082;50.870;0.022;2023-04-16T01:05:37;3.65;;;2.92;;
37805;SDS011;25082;50.870;0.022;2023-04-16T01:08:03;5.03;;;2.35;;
37805;SDS011;25082;50.870;0.022;2023-04-16T01:10:29;4.35;;;2.97;;
37805;SDS011;25082;50.870;0.022;2023-04-16T01:12:55;3.38;;;2.53;;
37805;SDS011;25082;50.870;0.022;2023-04-16T01:15:20;4.25;;;2.33;;
37805;SDS011;25082;50.870;0.022;2023-04-16T01:17:46;4.28;;;2.30;;
37805;SDS011;25082;50.870;0.022;2023-04-16T01:20:12;4.90;;;2.65;;
37805;SDS011;25082;50.870;0.022;2023-04-16T01:22:38;5.50;;;2.60;;
37805;SDS011;25082;50.870;0.022;2023-04-16T01:25:04;4.55;;;2.38;;
37805;SDS011;25082;50.870;0.022;2023-04-16T01:27:30;3.95;;;2.45;;
37805;SDS011;25082;50.870;0.022;2023-04-16T01:29:56;5.07;;;2.28;;
37805;SDS011;25082;50.870;0.022;2023-04-16T01:32:22;4.13;;;2.50;;
37805;SDS011;25082;50.870;0.022;2023-04-16T01:34:48;4.60;;;2.80;;
37805;SDS011;25082;50.870;0.022;2023-04-16T01:37:14;3.70;;;2.20;;
37805;SDS011;25082;50.870;0.022;2023-04-16T01:39:39;4.20;;;2.42;;
37805;SDS011;25082;50.870;0.022;2023-04-16T01:42:05;5.85;;;2.55;;
37805;SDS011;25082;50.870;0.022;2023-04-16T01:44:31;6.05;;;3.05;;
37805;SDS011;25082;50.870;0.022;2023-04-16T01:46:56;3.80;;;2.33;;
37805;SDS011;25082;50.870;0.022;2023-04-16T01:49:22;4.57;;;2.58;;
37805;SDS011;25082;50.870;0.022;2023-04-16T01:51:48;5.00;;;2.70;;
37805;SDS011;25082;50.870;0.022;2023-04-16T01:54:14;4.35;;;2.65;;
37805;SDS011;25082;50.870;0.022;2023-04-16T01:56:39;4.15;;;2.60;;
37805;SDS011;25082;50.870;0.022;2023-04-16T01:59:05;5.72;;;2.70;;
37805;SDS011;25082;50.870;0.022;2023-04-16T02:01:31;4.30;;;2.55;;
37805;SDS011;25082;50.870;0.022;2023-04-16T02:03:57;4.45;;;2.90;;
37805;SDS011;25082;50.870;0.022;2023-04-16T02:06:22;5.15;;;2.60;;
37805;SDS011;25082;50.870;0.022;2023-04-16T02:08:48;3.13;;;2.40;;
37805;SDS011;25082;50.870;0.022;2023-04-16T02:11:14;4.30;;;2.50;;
37805;SDS011;25082;50.870;0.022;2023-04-16T02:13:40;4.70;;;2.63;;
37805;SDS011;25082;50.870;0.022;2023-04-16T02:16:05;4.22;;;2.40;;
37805;SDS011;25082;50.870;0.022;2023-04-16T02:18:31;4.38;;;2.60;;
37805;SDS011;25082;50.870;0.022;2023-04-16T02:20:57;5.05;;;2.70;;
37805;SDS011;25082;50.870;0.022;2023-04-16T02:23:24;3.90;;;2.13;;
37805;SDS011;25082;50.870;0.022;2023-04-16T02:25:50;5.07;;;2.53;;
37805;SDS011;25082;50.870;0.022;2023-04-16T02:28:15;3.25;;;2.13;;
37805;SDS011;25082;50.870;0.022;2023-04-16T02:30:42;4.32;;;2.10;;
37805;SDS011;25082;50.870;0.022;2023-04-16T02:33:08;3.63;;;2.35;;
37805;SDS011;25082;50.870;0.022;2023-04-16T02:35:35;6.47;;;2.45;;
37805;SDS011;25082;50.870;0.022;2023-04-16T02:38:02;3.50;;;2.22;;
37805;SDS011;25082;50.870;0.022;2023-04-16T02:40:29;5.18;;;2.53;;
37805;SDS011;25082;50.870;0.022;2023-04-16T02:42:55;3.28;;;2.53;;
37805;SDS011;25082;50.870;0.022;2023-04-16T02:45:21;3.55;;;2.28;;
37805;SDS011;25082;50.870;0.022;2023-04-16T02:47:48;4.63;;;2.55;;
37805;SDS011;25082;50.870;0.022;2023-04-16T02:50:14;4.22;;;2.40;;
37805;SDS011;25082;50.870;0.022;2023-04-16T02:52:41;3.13;;;2.13;;
37805;SDS011;25082;50.870;0.022;2023-04-16T02:55:07;4.18;;;2.15;;
37805;SDS011;25082;50.870;0.022;2023-04-16T02:57:33;3.70;;;2.70;;
37805;SDS011;25082;50.870;0.022;2023-04-16T02:59:59;3.72;;;2.40;;
37805;SDS011;25082;50.870;0.022;2023-04-16T03:02:25;4.28;;;2.08;;
37805;SDS011;25082;50.870;0.022;2023-04-16T03:04:52;3.97;;;2.30;;
37805;SDS011;25082;50.870;0.022;2023-04-16T03:07:18;4.25;;;2.50;;
37805;SDS011;25082;50.870;0.022;2023-04-16T03:09:43;3.28;;;1.73;;
37805;SDS011;25082;50.870;0.022;2023-04-16T03:12:09;2.70;;;1.80;;
37805;SDS011;25082;50.870;0.022;2023-04-16T03:14:35;3.40;;;2.13;;
37805;SDS011;25082;50.870;0.022;2023-04-16T03:17:01;3.95;;;2.50;;
37805;SDS011;25082;50.870;0.022;2023-04-16T03:19:26;4.63;;;2.67;;
37805;SDS011;25082;50.870;0.022;2023-04-16T03:21:52;2.95;;;2.05;;
37805;SDS011;25082;50.870;0.022;2023-04-16T03:24:18;2.90;;;1.92;;
37805;SDS011;25082;50.870;0.022;2023-04-16T03:26:43;5.32;;;2.50;;
37805;SDS011;25082;50.870;0.022;2023-04-16T03:29:09;7.40;;;2.85;;
37805;SDS011;25082;50.870;0.022;2023-04-16T03:31:35;2.70;;;1.92;;
37805;SDS011;25082;50.870;0.022;2023-04-16T03:34:01;5.18;;;2.20;;
37805;SDS011;25082;50.870;0.022;2023-04-16T03:36:26;3.70;;;2.28;;
37805;SDS011;25082;50.870;0.022;2023-04-16T03:38:52;4.32;;;2.22;;
37805;SDS011;25082;50.870;0.022;2023-04-16T03:41:18;5.10;;;2.67;;
37805;SDS011;25082;50.870;0.022;2023-04-16T03:43:44;4.63;;;2.10;;
37805;SDS011;25082;50.870;0.022;2023-04-16T03:46:09;3.92;;;1.83;;
37805;SDS011;25082;50.870;0.022;2023-04-16T03:48:35;3.97;;;2.15;;
37805;SDS011;25082;50.870;0.022;2023-04-16T03:51:01;3.70;;;2.35;;
37805;SDS011;25082;50.870;0.022;2023-04-16T03:53:27;2.95;;;2.15;;
37805;SDS011;25082;50.870;0.022;2023-04-16T03:55:53;4.20;;;2.28;;
37805;SDS011;25082;50.870;0.022;2023-04-16T03:58:19;3.13;;;2.03;;
37805;SDS011;25082;50.870;0.022;2023-04-16T04:00:45;2.88;;;1.92;;
37805;SDS011;25082;50.870;0.022;2023-04-16T04:03:11;3.38;;;2.25;;
37805;SDS011;25082;50.870;0.022;2023-04-16T04:05:40;4.57;;;2.53;;
37805;SDS011;25082;50.870;0.022;2023-04-16T04:08:07;3.08;;;2.40;;
37805;SDS011;25082;50.870;0.022;2023-04-16T04:10:33;4.13;;;2.63;;
37805;SDS011;25082;50.870;0.022;2023-04-16T04:13:01;4.28;;;2.22;;
37805;SDS011;25082;50.870;0.022;2023-04-16T04:15:28;5.68;;;2.60;;
37805;SDS011;25082;50.870;0.022;2023-04-16T04:17:54;5.35;;;2.58;;
37805;SDS011;25082;50.870;0.022;2023-04-16T04:20:20;5.15;;;2.50;;
37805;SDS011;25082;50.870;0.022;2023-04-16T04:22:46;3.28;;;2.05;;
37805;SDS011;25082;50.870;0.022;2023-04-16T04:25:12;4.20;;;2.10;;
37805;SDS011;25082;50.870;0.022;2023-04-16T04:27:38;5.60;;;2.10;;
37805;SDS011;25082;50.870;0.022;2023-04-16T04:30:04;4.15;;;2.47;;
37805;SDS011;25082;50.870;0.022;2023-04-16T04:32:31;6.88;;;2.13;;
37805;SDS011;25082;50.870;0.022;2023-04-16T04:34:58;4.68;;;2.85;;
37805;SDS011;25082;50.870;0.022;2023-04-16T04:37:25;4.22;;;2.92;;
37805;SDS011;25082;50.870;0.022;2023-04-16T04:39:51;6.18;;;2.67;;
37805;SDS011;25082;50.870;0.022;2023-04-16T04:42:17;2.75;;;2.13;;
37805;SDS011;25082;50.870;0.022;2023-04-16T04:44:43;4.35;;;2.58;;
37805;SDS011;25082;50.870;0.022;2023-04-16T04:47:10;3.35;;;2.40;;
37805;SDS011;25082;50.870;0.022;2023-04-16T04:49:35;4.00;;;2.58;;
37805;SDS011;25082;50.870;0.022;2023-04-16T04:52:01;3.03;;;2.17;;
37805;SDS011;25082;50.870;0.022;2023-04-16T04:54:27;3.67;;;2.88;;
37805;SDS011;25082;50.870;0.022;2023-04-16T04:56:55;3.60;;;2.58;;
37805;SDS011;25082;50.870;0.022;2023-04-16T04:59:21;4.38;;;2.85;;
37805;SDS011;25082;50.870;0.022;2023-04-16T05:01:48;4.32;;;2.60;;
37805;SDS011;25082;50.870;0.022;2023-04-16T05:04:14;4.68;;;2.50;;
37805;SDS011;25082;50.870;0.022;2023-04-16T05:06:39;5.80;;;3.13;;
37805;SDS011;25082;50.870;0.022;2023-04-16T05:09:05;4.55;;;2.65;;
37805;SDS011;25082;50.870;0.022;2023-04-16T05:11:35;4.18;;;2.72;;
37805;SDS011;25082;50.870;0.022;2023-04-16T05:14:05;4.30;;;2.75;;
37805;SDS011;25082;50.870;0.022;2023-04-16T05:16:31;4.38;;;2.95;;
37805;SDS011;25082;50.870;0.022;2023-04-16T05:18:57;6.55;;;2.97;;
37805;SDS011;25082;50.870;0.022;2023-04-16T05:21:23;3.65;;;2.75;;
37805;SDS011;25082;50.870;0.022;2023-04-16T05:23:50;5.70;;;3.00;;
37805;SDS011;25082;50.870;0.022;2023-04-16T05:26:16;6.78;;;2.58;;
37805;SDS011;25082;50.870;0.022;2023-04-16T05:28:41;3.33;;;2.47;;
37805;SDS011;25082;50.870;0.022;2023-04-16T05:31:07;5.60;;;3.35;;
37805;SDS011;25082;50.870;0.022;2023-04-16T05:33:33;5.18;;;2.53;;
37805;SDS011;25082;50.870;0.022;2023-04-16T05:35:59;7.28;;;3.25;;
37805;SDS011;25082;50.870;0.022;2023-04-16T05:38:24;4.57;;;2.55;;
37805;SDS011;25082;50.870;0.022;2023-04-16T05:40:50;5.95;;;3.15;;
37805;SDS011;25082;50.870;0.022;2023-04-16T05:43:16;6.47;;;2.85;;
37805;SDS011;25082;50.870;0.022;2023-04-16T05:45:42;5.05;;;2.38;;
37805;SDS011;25082;50.870;0.022;2023-04-16T05:48:07;4.50;;;2.63;;
37805;SDS011;25082;50.870;0.022;2023-04-16T05:50:34;4.93;;;3.20;;
37805;SDS011;25082;50.870;0.022;2023-04-16T05:53:04;5.38;;;2.70;;
37805;SDS011;25082;50.870;0.022;2023-04-16T05:55:31;4.22;;;2.92;;
37805;SDS011;25082;50.870;0.022;2023-04-16T05:57:57;7.93;;;3.03;;
37805;SDS011;25082;50.870;0.022;2023-04-16T06:00:23;4.32;;;2.72;;
37805;SDS011;25082;50.870;0.022;2023-04-16T06:02:49;3.90;;;2.97;;
37805;SDS011;25082;50.870;0.022;2023-04-16T06:05:15;4.03;;;2.45;;
37805;SDS011;25082;50.870;0.022;2023-04-16T06:07:41;4.70;;;2.85;;
37805;SDS011;25082;50.870;0.022;2023-04-16T06:10:07;3.97;;;2.88;;
37805;SDS011;25082;50.870;0.022;2023-04-16T06:12:33;5.22;;;3.03;;
37805;SDS011;25082;50.870;0.022;2023-04-16T06:14:59;4.57;;;2.65;;
37805;SDS011;25082;50.870;0.022;2023-04-16T06:17:25;5.10;;;2.78;;
37805;SDS011;25082;50.870;0.022;2023-04-16T06:19:51;4.97;;;3.08;;
37805;SDS011;25082;50.870;0.022;2023-04-16T06:22:17;5.55;;;3.45;;
37805;SDS011;25082;50.870;0.022;2023-04-16T06:24:43;4.03;;;2.60;;
37805;SDS011;25082;50.870;0.022;2023-04-16T06:27:08;4.40;;;2.92;;
37805;SDS011;25082;50.870;0.022;2023-04-16T06:29:34;4.70;;;2.88;;
37805;SDS011;25082;50.870;0.022;2023-04-16T06:32:00;5.68;;;2.80;;
37805;SDS011;25082;50.870;0.022;2023-04-16T06:34:27;4.15;;;2.78;;
37805;SDS011;25082;50.870;0.022;2023-04-16T06:36:53;3.50;;;2.50;;
37805;SDS011;25082;50.870;0.022;2023-04-16T06:39:19;4.28;;;2.85;;
37805;SDS011;25082;50.870;0.022;2023-04-16T06:41:48;8.38;;;3.28;;
37805;SDS011;25082;50.870;0.022;2023-04-16T06:44:14;3.72;;;2.28;;
37805;SDS011;25082;50.870;0.022;2023-04-16T06:46:40;4.45;;;2.63;;
37805;SDS011;25082;50.870;0.022;2023-04-16T06:49:06;5.07;;;2.83;;
37805;SDS011;25082;50.870;0.022;2023-04-16T06:51:32;3.47;;;2.55;;
37805;SDS011;25082;50.870;0.022;2023-04-16T06:53:58;5.75;;;2.65;;
37805;SDS011;25082;50.870;0.022;2023-04-16T06:56:23;5.22;;;2.42;;
37805;SDS011;25082;50.870;0.022;2023-04-16T06:58:49;3.60;;;2.63;;
37805;SDS011;25082;50.870;0.022;2023-04-16T07:01:16;4.25;;;2.42;;
37805;SDS011;25082;50.870;0.022;2023-04-16T07:03:42;4.20;;;2.30;;
37805;SDS011;25082;50.870;0.022;2023-04-16T07:06:08;5.88;;;2.67;;
37805;SDS011;25082;50.870;0.022;2023-04-16T07:08:34;5.63;;;2.60;;
37805;SDS011;25082;50.870;0.022;2023-04-16T07:11:00;4.35;;;2.53;;
37805;SDS011;25082;50.870;0.022;2023-04-16T07:13:25;3.85;;;2.55;;
37805;SDS011;25082;50.870;0.022;2023-04-16T07:15:51;3.63;;;2.50;;
37805;SDS011;25082;50.870;0.022;2023-04-16T07:18:17;4.18;;;3.20;;
37805;SDS011;25082;50.870;0.022;2023-04-16T07:20:43;5.20;;;2.72;;
37805;SDS011;25082;50.870;0.022;2023-04-16T07:23:09;5.65;;;2.42;;
37805;SDS011;25082;50.870;0.022;2023-04-16T07:25:35;4.97;;;2.60;;
37805;SDS011;25082;50.870;0.022;2023-04-16T07:28:01;4.72;;;2.67;;
37805;SDS011;25082;50.870;0.022;2023-04-16T07:30:27;3.15;;;2.30;;
37805;SDS011;25082;50.870;0.022;2023-04-16T07:32:58;5.35;;;2.78;;
37805;SDS011;25082;50.870;0.022;2023-04-16T07:35:25;3.97;;;2.60;;
37805;SDS011;25082;50.870;0.022;2023-04-16T07:37:51;6.38;;;2.75;;
37805;SDS011;25082;50.870;0.022;2023-04-16T07:40:17;4.38;;;2.35;;
37805;SDS011;25082;50.870;0.022;2023-04-16T07:42:42;4.15;;;2.60;;
37805;SDS011;25082;50.870;0.022;2023-04-16T07:45:08;3.33;;;2.28;;
37805;SDS011;25082;50.870;0.022;2023-04-16T07:47:34;2.92;;;2.03;;
37805;SDS011;25082;50.870;0.022;2023-04-16T07:50:00;3.55;;;2.15;;
37805;SDS011;25082;50.870;0.022;2023-04-16T07:52:26;6.25;;;2.65;;
37805;SDS011;25082;50.870;0.022;2023-04-16T07:54:54;6.00;;;2.80;;
37805;SDS011;25082;50.870;0.022;2023-04-16T07:57:19;4.72;;;2.38;;
37805;SDS011;25082;50.870;0.022;2023-04-16T07:59:45;4.45;;;2.47;;
37805;SDS011;25082;50.870;0.022;2023-04-16T08:02:11;4.53;;;2.72;;
37805;SDS011;25082;50.870;0.022;2023-04-16T08:04:40;4.30;;;2.28;;
37805;SDS011;25082;50.870;0.022;2023-04-16T08:07:07;7.55;;;2.78;;
37805;SDS011;25082;50.870;0.022;2023-04-16T08:09:32;3.83;;;2.58;;
37805;SDS011;25082;50.870;0.022;2023-04-16T08:12:00;3.55;;;2.08;;
37805;SDS011;25082;50.870;0.022;2023-04-16T08:14:26;4.35;;;1.92;;
37805;SDS011;25082;50.870;0.022;2023-04-16T08:16:52;6.43;;;2.45;;
37805;SDS011;25082;50.870;0.022;2023-04-16T08:19:18;3.47;;;1.92;;
37805;SDS011;25082;50.870;0.022;2023-04-16T08:21:44;3.83;;;2.53;;
37805;SDS011;25082;50.870;0.022;2023-04-16T08:24:10;6.25;;;2.28;;
37805;SDS011;25082;50.870;0.022;2023-04-16T08:26:36;6.05;;;2.78;;
37805;SDS011;25082;50.870;0.022;2023-04-16T08:29:02;2.85;;;2.28;;
37805;SDS011;25082;50.870;0.022;2023-04-16T08:31:28;4.60;;;2.20;;
37805;SDS011;25082;50.870;0.022;2023-04-16T08:33:53;4.40;;;2.72;;
37805;SDS011;25082;50.870;0.022;2023-04-16T08:36:19;3.72;;;2.10;;
37805;SDS011;25082;50.870;0.022;2023-04-16T08:38:45;5.60;;;2.30;;
37805;SDS011;25082;50.870;0.022;2023-04-16T08:41:11;6.90;;;2.72;;
37805;SDS011;25082;50.870;0.022;2023-04-16T08:43:41;9.73;;;2.83;;
37805;SDS011;25082;50.870;0.022;2023-04-16T08:46:10;9.90;;;3.10;;
37805;SDS011;25082;50.870;0.022;2023-04-16T08:48:36;9.93;;;2.63;;
37805;SDS011;25082;50.870;0.022;2023-04-16T08:51:02;12.32;;;2.60;;
37805;SDS011;25082;50.870;0.022;2023-04-16T08:53:47;15.77;;;2.95;;
37805;SDS011;25082;50.870;0.022;2023-04-16T08:56:22;5.00;;;2.40;;
37805;SDS011;25082;50.870;0.022;2023-04-16T08:58:49;12.45;;;3.08;;
37805;SDS011;25082;50.870;0.022;2023-04-16T09:01:16;12.43;;;3.53;;
37805;SDS011;25082;50.870;0.022;2023-04-16T09:03:46;7.90;;;3.15;;
37805;SDS011;25082;50.870;0.022;2023-04-16T09:06:12;9.25;;;2.47;;
37805;SDS011;25082;50.870;0.022;2023-04-16T09:08:39;7.45;;;2.42;;
37805;SDS011;25082;50.870;0.022;2023-04-16T09:11:05;8.07;;;2.50;;
37805;SDS011;25082;50.870;0.022;2023-04-16T09:13:31;2.80;;;1.85;;
37805;SDS011;25082;50.870;0.022;2023-04-16T09:15:57;7.05;;;2.17;;
37805;SDS011;25082;50.870;0.022;2023-04-16T09:18:23;12.65;;;2.70;;
37805;SDS011;25082;50.870;0.022;2023-04-16T09:20:50;9.27;;;2.42;;
37805;SDS011;25082;50.870;0.022;2023-04-16T09:23:16;11.38;;;3.20;;
37805;SDS011;25082;50.870;0.022;2023-04-16T09:25:42;7.57;;;2.33;;
37805;SDS011;25082;50.870;0.022;2023-04-16T09:28:08;8.73;;;1.95;;
37805;SDS011;25082;50.870;0.022;2023-04-16T09:30:35;5.82;;;2.28;;
37805;SDS011;25082;50.870;0.022;2023-04-16T09:35:45;9.48;;;2.22;;
37805;SDS011;25082;50.870;0.022;2023-04-16T09:38:12;7.55;;;2.08;;
37805;SDS011;25082;50.870;0.022;2023-04-16T09:40:37;7.10;;;2.38;;
37805;SDS011;25082;50.870;0.022;2023-04-16T09:43:14;8.57;;;2.00;;
37805;SDS011;25082;50.870;0.022;2023-04-16T09:45:53;8.35;;;1.98;;
37805;SDS011;25082;50.870;0.022;2023-04-16T09:50:55;5.35;;;2.13;;
37805;SDS011;25082;50.870;0.022;2023-04-16T09:55:51;5.57;;;2.30;;
37805;SDS011;25082;50.870;0.022;2023-04-16T09:58:24;8.38;;;2.10;;
37805;SDS011;25082;50.870;0.022;2023-04-16T10:03:47;9.82;;;2.75;;
37805;SDS011;25082;50.870;0.022;2023-04-16T10:06:14;11.95;;;2.67;;
37805;SDS011;25082;50.870;0.022;2023-04-16T10:08:43;8.15;;;2.38;;
37805;SDS011;25082;50.870;0.022;2023-04-16T10:11:16;6.80;;;1.95;;
37805;SDS011;25082;50.870;0.022;2023-04-16T10:13:43;6.15;;;1.85;;
37805;SDS011;25082;50.870;0.022;2023-04-16T10:16:09;11.77;;;2.08;;
37805;SDS011;25082;50.870;0.022;2023-04-16T10:18:36;5.90;;;2.13;;
37805;SDS011;25082;50.870;0.022;2023-04-16T10:21:03;6.53;;;2.28;;
37805;SDS011;25082;50.870;0.022;2023-04-16T10:23:29;4.43;;;2.00;;
37805;SDS011;25082;50.870;0.022;2023-04-16T10:25:56;6.93;;;2.33;;
37805;SDS011;25082;50.870;0.022;2023-04-16T10:28:23;4.65;;;1.92;;
37805;SDS011;25082;50.870;0.022;2023-04-16T10:30:49;7.68;;;1.80;;
37805;SDS011;25082;50.870;0.022;2023-04-16T10:33:22;5.40;;;2.00;;
37805;SDS011;25082;50.870;0.022;2023-04-16T10:36:14;6.65;;;1.73;;
37805;SDS011;25082;50.870;0.022;2023-04-16T10:38:46;4.60;;;2.00;;
37805;SDS011;25082;50.870;0.022;2023-04-16T10:41:13;7.05;;;2.25;;
37805;SDS011;25082;50.870;0.022;2023-04-16T10:43:42;4.35;;;1.50;;
37805;SDS011;25082;50.870;0.022;2023-04-16T10:46:18;5.32;;;1.73;;
37805;SDS011;25082;50.870;0.022;2023-04-16T10:48:49;3.95;;;1.48;;
37805;SDS011;25082;50.870;0.022;2023-04-16T10:51:27;4.45;;;1.80;;
37805;SDS011;25082;50.870;0.022;2023-04-16T10:54:40;4.13;;;1.70;;
37805;SDS011;25082;50.870;0.022;2023-04-16T10:56:42;5.25;;;1.90;;
37805;SDS011;25082;50.870;0.022;2023-04-16T10:59:10;6.20;;;1.90;;
37805;SDS011;25082;50.870;0.022;2023-04-16T11:01:36;3.10;;;1.48;;
37805;SDS011;25082;50.870;0.022;2023-04-16T11:07:00;2.28;;;1.42;;
37805;SDS011;25082;50.870;0.022;2023-04-16T11:12:19;4.78;;;1.65;;
37805;SDS011;25082;50.870;0.022;2023-04-16T11:17:31;5.55;;;1.90;;
37805;SDS011;25082;50.870;0.022;2023-04-16T11:20:00;7.07;;;1.85;;
37805;SDS011;25082;50.870;0.022;2023-04-16T11:22:26;3.08;;;1.30;;
37805;SDS011;25082;50.870;0.022;2023-04-16T11:24:52;4.32;;;1.95;;
37805;SDS011;25082;50.870;0.022;2023-04-16T11:27:20;2.92;;;1.85;;
37805;SDS011;25082;50.870;0.022;2023-04-16T11:29:55;3.00;;;1.77;;
37805;SDS011;25082;50.870;0.022;2023-04-16T11:32:22;3.75;;;1.77;;
37805;SDS011;25082;50.870;0.022;2023-04-16T11:34:47;6.13;;;2.22;;
37805;SDS011;25082;50.870;0.022;2023-04-16T11:37:13;3.50;;;1.58;;
37805;SDS011;25082;50.870;0.022;2023-04-16T11:39:49;4.68;;;1.83;;
37805;SDS011;25082;50.870;0.022;2023-04-16T11:42:19;3.20;;;1.77;;
37805;SDS011;25082;50.870;0.022;2023-04-16T11:44:54;3.15;;;1.80;;
37805;SDS011;25082;50.870;0.022;2023-04-16T11:47:21;3.33;;;1.45;;
37805;SDS011;25082;50.870;0.022;2023-04-16T11:49:47;2.97;;;1.73;;
37805;SDS011;25082;50.870;0.022;2023-04-16T11:52:23;2.53;;;1.45;;
37805;SDS011;25082;50.870;0.022;2023-04-16T11:54:51;2.28;;;1.60;;
37805;SDS011;25082;50.870;0.022;2023-04-16T11:57:30;6.07;;;1.80;;
37805;SDS011;25082;50.870;0.022;2023-04-16T11:59:56;3.00;;;1.98;;
37805;SDS011;25082;50.870;0.022;2023-04-16T12:05:04;4.20;;;1.77;;
37805;SDS011;25082;50.870;0.022;2023-04-16T12:07:42;2.50;;;1.53;;
37805;SDS011;25082;50.870;0.022;2023-04-16T12:10:10;2.55;;;1.45;;
37805;SDS011;25082;50.870;0.022;2023-04-16T12:12:35;3.25;;;1.40;;
37805;SDS011;25082;50.870;0.022;2023-04-16T12:15:01;3.00;;;1.73;;
37805;SDS011;25082;50.870;0.022;2023-04-16T12:17:28;3.20;;;1.45;;
37805;SDS011;25082;50.870;0.022;2023-04-16T12:19:55;2.10;;;1.30;;
37805;SDS011;25082;50.870;0.022;2023-04-16T12:22:27;1.92;;;1.25;;
37805;SDS011;25082;50.870;0.022;2023-04-16T12:25:03;2.15;;;1.30;;
37805;SDS011;25082;50.870;0.022;2023-04-16T12:27:46;3.95;;;1.60;;
37805;SDS011;25082;50.870;0.022;2023-04-16T12:30:15;4.35;;;1.58;;
37805;SDS011;25082;50.870;0.022;2023-04-16T12:32:42;2.10;;;1.20;;
37805;SDS011;25082;50.870;0.022;2023-04-16T12:35:10;4.00;;;1.73;;
37805;SDS011;25082;50.870;0.022;2023-04-16T12:37:37;3.22;;;1.73;;
37805;SDS011;25082;50.870;0.022;2023-04-16T12:40:04;3.08;;;1.50;;
37805;SDS011;25082;50.870;0.022;2023-04-16T12:42:31;2.30;;;1.58;;
37805;SDS011;25082;50.870;0.022;2023-04-16T12:45:03;7.80;;;1.98;;
37805;SDS011;25082;50.870;0.022;2023-04-16T12:47:32;3.22;;;1.30;;
37805;SDS011;25082;50.870;0.022;2023-04-16T12:49:58;5.05;;;1.67;;
37805;SDS011;25082;50.870;0.022;2023-04-16T12:52:24;3.85;;;1.45;;
37805;SDS011;25082;50.870;0.022;2023-04-16T12:54:50;3.75;;;1.75;;
37805;SDS011;25082;50.870;0.022;2023-04-16T12:57:16;4.28;;;1.85;;
37805;SDS011;25082;50.870;0.022;2023-04-16T12:59:42;3.05;;;1.65;;
37805;SDS011;25082;50.870;0.022;2023-04-16T13:02:10;4.25;;;1.98;;
37805;SDS011;25082;50.870;0.022;2023-04-16T13:04:36;7.13;;;2.03;;
37805;SDS011;25082;50.870;0.022;2023-04-16T13:07:01;8.38;;;1.90;;
37805;SDS011;25082;50.870;0.022;2023-04-16T13:09:27;3.78;;;1.80;;
37805;SDS011;25082;50.870;0.022;2023-04-16T13:11:53;5.70;;;2.33;;
37805;SDS011;25082;50.870;0.022;2023-04-16T13:14:19;4.35;;;1.58;;
37805;SDS011;25082;50.870;0.022;2023-04-16T13:16:45;3.05;;;1.58;;
37805;SDS011;25082;50.870;0.022;2023-04-16T13:19:10;4.25;;;1.60;;
37805;SDS011;25082;50.870;0.022;2023-04-16T13:21:36;5.18;;;2.00;;
37805;SDS011;25082;50.870;0.022;2023-04-16T13:24:02;4.43;;;1.60;;
37805;SDS011;25082;50.870;0.022;2023-04-16T13:26:28;3.55;;;1.70;;
37805;SDS011;25082;50.870;0.022;2023-04-16T13:28:54;3.78;;;1.65;;
37805;SDS011;25082;50.870;0.022;2023-04-16T13:31:20;3.08;;;1.50;;
37805;SDS011;25082;50.870;0.022;2023-04-16T13:33:46;4.03;;;1.80;;
37805;SDS011;25082;50.870;0.022;2023-04-16T13:36:12;2.75;;;1.60;;
37805;SDS011;25082;50.870;0.022;2023-04-16T13:38:38;3.05;;;1.52;;
37805;SDS011;25082;50.870;0.022;2023-04-16T13:41:03;3.17;;;1.33;;
37805;SDS011;25082;50.870;0.022;2023-04-16T13:43:30;3.05;;;1.70;;
37805;SDS011;25082;50.870;0.022;2023-04-16T13:45:56;3.40;;;1.67;;
37805;SDS011;25082;50.870;0.022;2023-04-16T13:48:22;2.08;;;1.33;;
37805;SDS011;25082;50.870;0.022;2023-04-16T13:50:48;4.93;;;1.58;;
37805;SDS011;25082;50.870;0.022;2023-04-16T13:53:14;3.13;;;1.50;;
37805;SDS011;25082;50.870;0.022;2023-04-16T13:55:40;3.42;;;1.55;;
37805;SDS011;25082;50.870;0.022;2023-04-16T13:58:07;2.15;;;1.50;;
37805;SDS011;25082;50.870;0.022;2023-04-16T14:00:32;3.10;;;1.35;;
37805;SDS011;25082;50.870;0.022;2023-04-16T14:02:58;1.75;;;1.42;;
37805;SDS011;25082;50.870;0.022;2023-04-16T14:05:24;3.80;;;1.70;;
37805;SDS011;25082;50.870;0.022;2023-04-16T14:07:50;4.78;;;1.60;;
37805;SDS011;25082;50.870;0.022;2023-04-16T14:10:16;1.83;;;1.38;;
37805;SDS011;25082;50.870;0.022;2023-04-16T14:12:42;3.00;;;1.30;;
37805;SDS011;25082;50.870;0.022;2023-04-16T14:15:08;2.25;;;1.20;;
37805;SDS011;25082;50.870;0.022;2023-04-16T14:17:35;2.35;;;1.30;;
37805;SDS011;25082;50.870;0.022;2023-04-16T14:20:01;2.75;;;1.42;;
37805;SDS011;25082;50.870;0.022;2023-04-16T14:22:29;2.30;;;1.40;;
37805;SDS011;25082;50.870;0.022;2023-04-16T14:24:55;3.13;;;1.10;;
37805;SDS011;25082;50.870;0.022;2023-04-16T14:27:20;4.22;;;1.63;;
37805;SDS011;25082;50.870;0.022;2023-04-16T14:29:46;3.17;;;1.25;;
37805;SDS011;25082;50.870;0.022;2023-04-16T14:32:13;1.38;;;1.13;;
37805;SDS011;25082;50.870;0.022;2023-04-16T14:34:38;2.25;;;1.17;;
37805;SDS011;25082;50.870;0.022;2023-04-16T14:37:04;5.18;;;1.65;;
37805;SDS011;25082;50.870;0.022;2023-04-16T14:39:30;3.78;;;1.45;;
37805;SDS011;25082;50.870;0.022;2023-04-16T14:41:56;2.45;;;0.98;;
37805;SDS011;25082;50.870;0.022;2023-04-16T14:44:22;1.15;;;1.02;;
37805;SDS011;25082;50.870;0.022;2023-04-16T14:46:48;2.55;;;1.27;;
37805;SDS011;25082;50.870;0.022;2023-04-16T14:49:13;1.45;;;1.15;;
37805;SDS011;25082;50.870;0.022;2023-04-16T14:51:39;2.03;;;1.05;;
37805;SDS011;25082;50.870;0.022;2023-04-16T14:54:06;2.15;;;1.27;;
37805;SDS011;25082;50.870;0.022;2023-04-16T14:56:31;2.03;;;1.05;;
37805;SDS011;25082;50.870;0.022;2023-04-16T14:58:57;3.05;;;1.30;;
37805;SDS011;25082;50.870;0.022;2023-04-16T15:01:23;2.00;;;1.33;;
37805;SDS011;25082;50.870;0.022;2023-04-16T15:03:49;1.70;;;1.30;;
37805;SDS011;25082;50.870;0.022;2023-04-16T15:06:15;2.25;;;1.17;;
37805;SDS011;25082;50.870;0.022;2023-04-16T15:08:41;1.45;;;1.00;;